Time;durP1;ratioP1;P1;durP2;ratioP2;P2;SDS_P1;SDS_P2;PMS_P1;PMS_P2;Temp;Humidity;BMP_temperature;BMP_pressure;BME280_temperature;BME280_humidity;BME280_pressure;Samples;Min_cycle;Max_cycle;Signal;HPM_P1;HPM_P2
2022/09/06 00:01:56;;;;;;;4.20;3.80;;;;;;;;;;5008567;28;20936;-53
2022/09/06 00:04:22;;;;;;;5.63;3.80;;;;;;;;;;4982612;28;20476;-54
2022/09/06 00:06:48;;;;;;;4.67;4.10;;;;;;;;;;5008086;28;20193;-55
2022/09/06 00:09:14;;;;;;;6.30;3.67;;;;;;;;;;5002930;28;20932;-55
2022/09/06 00:11:41;;;;;;;4.37;3.53;;;;;;;;;;5009679;28;20470;-56
2022/09/06 00:14:07;;;;;;;4.67;4.17;;;;;;;;;;4994512;28;21046;-56
2022/09/06 00:16:33;;;;;;;4.27;3.87;;;;;;;;;;5004987;28;20451;-53
2022/09/06 00:18:59;;;;;;;6.43;3.77;;;;;;;;;;5004332;28;20428;-56
2022/09/06 00:21:27;;;;;;;4.00;3.50;;;;;;;;;;5005604;28;20435;-55
2022/09/06 00:23:53;;;;;;;7.93;4.33;;;;;;;;;;4972452;28;20440;-61
2022/09/06 00:26:20;;;;;;;4.03;3.63;;;;;;;;;;5005621;28;20937;-53
2022/09/06 00:28:46;;;;;;;4.20;3.47;;;;;;;;;;5002405;28;20447;-54
2022/09/06 00:31:20;;;;;;;5.73;4.00;;;;;;;;;;5005204;28;20463;-55
2022/09/06 00:33:47;;;;;;;4.03;3.63;;;;;;;;;;4980749;28;20458;-54
2022/09/06 00:36:13;;;;;;;3.53;3.20;;;;;;;;;;5008814;28;20452;-54
2022/09/06 00:38:39;;;;;;;4.80;3.57;;;;;;;;;;4994909;28;20443;-52
2022/09/06 00:41:05;;;;;;;4.27;3.87;;;;;;;;;;5020325;28;20459;-53
2022/09/06 00:43:31;;;;;;;10.60;4.20;;;;;;;;;;5002815;28;20498;-53
2022/09/06 00:45:57;;;;;;;5.17;4.00;;;;;;;;;;5002797;28;20476;-55
2022/09/06 00:48:24;;;;;;;3.57;3.10;;;;;;;;;;4994846;28;20470;-55
2022/09/06 00:50:51;;;;;;;10.23;3.60;;;;;;;;;;5007632;28;21058;-54
2022/09/06 00:53:27;;;;;;;4.57;3.87;;;;;;;;;;4986057;28;20454;-54
2022/09/06 00:55:56;;;;;;;5.10;3.67;;;;;;;;;;4997880;28;20463;-54
2022/09/06 00:58:22;;;;;;;6.97;4.03;;;;;;;;;;5007312;28;20431;-53
2022/09/06 01:00:47;;;;;;;4.77;4.37;;;;;;;;;;4976562;28;20499;-57
2022/09/06 01:03:13;;;;;;;5.10;3.70;;;;;;;;;;5003079;28;20191;-53
2022/09/06 01:05:58;;;;;;;4.93;3.40;;;;;;;;;;4976624;28;20212;-54
2022/09/06 01:08:29;;;;;;;5.27;4.13;;;;;;;;;;5004999;28;20188;-54
2022/09/06 01:11:05;;;;;;;6.20;3.77;;;;;;;;;;4996919;28;20475;-55
2022/09/06 01:13:45;;;;;;;5.57;4.03;;;;;;;;;;4997187;28;20456;-54
2022/09/06 01:16:13;;;;;;;4.60;4.10;;;;;;;;;;4991686;28;20446;-55
2022/09/06 01:18:39;;;;;;;6.83;3.70;;;;;;;;;;5013232;28;20466;-55
2022/09/06 01:21:05;;;;;;;3.83;3.43;;;;;;;;;;5002526;28;20444;-55
2022/09/06 01:23:38;;;;;;;4.80;3.90;;;;;;;;;;4991953;28;20443;-53
2022/09/06 01:26:23;;;;;;;3.77;3.13;;;;;;;;;;4972200;28;20587;-55
2022/09/06 01:28:49;;;;;;;3.70;3.30;;;;;;;;;;5002090;28;20440;-55
2022/09/06 01:31:15;;;;;;;4.97;4.20;;;;;;;;;;5003070;28;20934;-55
2022/09/06 01:33:44;;;;;;;5.90;3.67;;;;;;;;;;4993808;28;20527;-55
2022/09/06 01:36:11;;;;;;;5.90;3.90;;;;;;;;;;4991159;28;20189;-55
2022/09/06 01:38:37;;;;;;;4.60;3.70;;;;;;;;;;5000976;28;20552;-54
2022/09/06 01:41:03;;;;;;;4.57;3.97;;;;;;;;;;4985629;28;20452;-54
2022/09/06 01:43:36;;;;;;;4.03;3.07;;;;;;;;;;5004494;28;20714;-55
2022/09/06 01:46:05;;;;;;;4.53;3.80;;;;;;;;;;4978826;28;20475;-55
2022/09/06 01:48:34;;;;;;;5.07;4.20;;;;;;;;;;5004066;28;20472;-57
2022/09/06 01:51:10;;;;;;;5.30;4.00;;;;;;;;;;4996004;28;21314;-55
2022/09/06 01:53:57;;;;;;;4.20;3.80;;;;;;;;;;5000449;28;20444;-55
2022/09/06 01:56:26;;;;;;;4.80;3.50;;;;;;;;;;4959651;28;20444;-55
2022/09/06 01:58:52;;;;;;;4.17;3.80;;;;;;;;;;5002662;28;20944;-54
2022/09/06 02:01:38;;;;;;;4.50;3.83;;;;;;;;;;5003958;28;20439;-55
2022/09/06 02:04:19;;;;;;;4.15;3.75;;;;;;;;;;5013470;28;21029;-55
2022/09/06 02:06:57;;;;;;;3.87;3.50;;;;;;;;;;4977391;28;20475;-53
2022/09/06 02:09:24;;;;;;;4.20;3.80;;;;;;;;;;4999507;28;21343;-52
2022/09/06 02:11:53;;;;;;;10.30;3.80;;;;;;;;;;4999604;28;20452;-52
2022/09/06 02:14:20;;;;;;;3.70;3.40;;;;;;;;;;5000429;28;20451;-53
2022/09/06 02:16:46;;;;;;;3.90;3.60;;;;;;;;;;4975050;28;21034;-52
2022/09/06 02:19:14;;;;;;;3.90;3.50;;;;;;;;;;5007791;28;20498;-52
2022/09/06 02:21:42;;;;;;;4.70;4.30;;;;;;;;;;4997528;28;20232;-54
2022/09/06 02:24:08;;;;;;;3.53;3.00;;;;;;;;;;5000253;28;20490;-54
2022/09/06 02:26:35;;;;;;;8.50;3.30;;;;;;;;;;4995483;28;20451;-55
2022/09/06 02:29:01;;;;;;;3.97;3.60;;;;;;;;;;5011254;28;20915;-53
2022/09/06 02:31:31;;;;;;;4.17;3.40;;;;;;;;;;4998685;28;20499;-55
2022/09/06 02:33:57;;;;;;;4.77;4.17;;;;;;;;;;5007159;28;20494;-54
2022/09/06 02:36:23;;;;;;;4.67;4.13;;;;;;;;;;4996822;28;20467;-54
2022/09/06 02:38:50;;;;;;;4.20;3.70;;;;;;;;;;5020765;28;20451;-54
2022/09/06 02:41:17;;;;;;;4.70;4.10;;;;;;;;;;5003428;28;20456;-53
2022/09/06 02:43:55;;;;;;;5.50;5.00;;;;;;;;;;5008605;28;20781;-54
2022/09/06 02:46:23;;;;;;;4.70;4.30;;;;;;;;;;4981742;28;20847;-54
2022/09/06 02:48:49;;;;;;;4.70;4.10;;;;;;;;;;5006411;28;20448;-53
2022/09/06 02:51:15;;;;;;;7.93;4.43;;;;;;;;;;4985695;28;20455;-54
2022/09/06 02:53:41;;;;;;;6.20;4.97;;;;;;;;;;5010877;28;20875;-54
2022/09/06 02:56:07;;;;;;;6.50;5.43;;;;;;;;;;4981724;28;20543;-54
2022/09/06 02:58:33;;;;;;;8.23;5.83;;;;;;;;;;5008247;28;20920;-57
2022/09/06 03:00:59;;;;;;;7.80;6.27;;;;;;;;;;4986097;28;20456;-53
2022/09/06 03:03:26;;;;;;;6.13;5.53;;;;;;;;;;5003466;28;20438;-54
2022/09/06 03:05:52;;;;;;;6.90;6.07;;;;;;;;;;4999311;28;20787;-53
2022/09/06 03:08:18;;;;;;;9.80;6.43;;;;;;;;;;5006132;28;20424;-53
2022/09/06 03:10:59;;;;;;;7.67;5.33;;;;;;;;;;4994834;28;20452;-54
2022/09/06 03:13:26;;;;;;;8.87;5.80;;;;;;;;;;5007657;28;21162;-54
2022/09/06 03:15:54;;;;;;;6.80;6.10;;;;;;;;;;5003985;28;20452;-53
2022/09/06 03:18:21;;;;;;;7.73;5.60;;;;;;;;;;5009262;28;20426;-54
2022/09/06 03:20:49;;;;;;;10.40;6.03;;;;;;;;;;5003297;28;20436;-61
2022/09/06 03:23:15;;;;;;;6.40;5.63;;;;;;;;;;5004881;28;20425;-54
2022/09/06 03:25:42;;;;;;;7.27;6.40;;;;;;;;;;5005578;28;20475;-54
2022/09/06 03:28:11;;;;;;;7.87;6.70;;;;;;;;;;5003122;28;20440;-54
2022/09/06 03:30:38;;;;;;;7.40;5.67;;;;;;;;;;5006637;28;20448;-54
2022/09/06 03:33:04;;;;;;;7.83;7.07;;;;;;;;;;4991567;28;20443;-54
2022/09/06 03:35:30;;;;;;;10.33;5.77;;;;;;;;;;4986905;28;20478;-56
2022/09/06 03:37:56;;;;;;;12.47;7.00;;;;;;;;;;5008414;28;20424;-53
2022/09/06 03:40:21;;;;;;;8.80;6.40;;;;;;;;;;5000917;28;20455;-53
2022/09/06 03:42:47;;;;;;;8.10;7.30;;;;;;;;;;5005114;28;20619;-54
2022/09/06 03:45:13;;;;;;;9.80;5.90;;;;;;;;;;4983623;28;20483;-55
2022/09/06 03:47:39;;;;;;;11.07;6.70;;;;;;;;;;5002962;28;20443;-54
2022/09/06 03:50:06;;;;;;;8.80;7.00;;;;;;;;;;4983077;28;20444;-54
2022/09/06 03:52:32;;;;;;;11.13;7.27;;;;;;;;;;5007375;28;20440;-58
2022/09/06 03:54:58;;;;;;;13.90;6.90;;;;;;;;;;5001753;28;20458;-54
2022/09/06 03:57:24;;;;;;;8.83;7.87;;;;;;;;;;5003902;28;20505;-54
2022/09/06 03:59:50;;;;;;;8.10;6.33;;;;;;;;;;4997757;28;20177;-55
2022/09/06 04:02:16;;;;;;;7.77;6.77;;;;;;;;;;5000092;28;20451;-54
2022/09/06 04:04:43;;;;;;;16.53;7.40;;;;;;;;;;4985364;28;20464;-55
2022/09/06 04:07:09;;;;;;;8.67;7.10;;;;;;;;;;4980211;28;20582;-53
2022/09/06 04:09:34;;;;;;;7.40;6.70;;;;;;;;;;5001861;28;20451;-53
2022/09/06 04:12:00;;;;;;;10.03;7.00;;;;;;;;;;5000763;28;20447;-53
2022/09/06 04:14:26;;;;;;;8.70;7.70;;;;;;;;;;4999568;28;20274;-52
2022/09/06 04:16:52;;;;;;;10.50;6.50;;;;;;;;;;4985596;28;20948;-54
2022/09/06 04:19:18;;;;;;;13.93;6.90;;;;;;;;;;5002870;28;20446;-54
2022/09/06 04:21:44;;;;;;;7.20;6.50;;;;;;;;;;4974642;28;20444;-55
2022/09/06 04:24:14;;;;;;;8.80;6.90;;;;;;;;;;5002584;28;20463;-55
2022/09/06 04:26:40;;;;;;;9.00;8.10;;;;;;;;;;4977063;28;20447;-53
2022/09/06 04:29:05;;;;;;;8.03;7.23;;;;;;;;;;5004750;28;20574;-53
2022/09/06 04:31:31;;;;;;;8.77;6.87;;;;;;;;;;4979910;28;20447;-55
2022/09/06 04:33:57;;;;;;;8.37;6.53;;;;;;;;;;5006480;28;20446;-54
2022/09/06 04:36:23;;;;;;;6.13;5.53;;;;;;;;;;4961037;28;20436;-54
2022/09/06 04:38:49;;;;;;;7.00;6.20;;;;;;;;;;4999430;28;20196;-55
2022/09/06 04:41:15;;;;;;;7.17;6.47;;;;;;;;;;5001308;28;20447;-54
2022/09/06 04:43:41;;;;;;;7.13;6.43;;;;;;;;;;5007725;28;20181;-54
2022/09/06 04:46:13;;;;;;;9.03;7.03;;;;;;;;;;4979495;28;20566;-53
2022/09/06 04:48:39;;;;;;;8.67;7.03;;;;;;;;;;4998344;28;20490;-53
2022/09/06 04:51:05;;;;;;;7.80;6.93;;;;;;;;;;4976828;28;20757;-53
2022/09/06 04:53:32;;;;;;;9.20;7.53;;;;;;;;;;5019958;28;20173;-54
2022/09/06 04:55:58;;;;;;;8.10;7.30;;;;;;;;;;4973361;28;22545;-53
2022/09/06 04:58:24;;;;;;;8.00;7.20;;;;;;;;;;5005998;28;20444;-53
2022/09/06 05:00:50;;;;;;;7.17;6.47;;;;;;;;;;4979193;28;21631;-52
2022/09/06 05:03:16;;;;;;;8.90;7.80;;;;;;;;;;4996867;28;20436;-54
2022/09/06 05:05:43;;;;;;;10.30;7.10;;;;;;;;;;4961929;28;20565;-60
2022/09/06 05:08:15;;;;;;;8.07;6.90;;;;;;;;;;4996390;28;20257;-55
2022/09/06 05:10:41;;;;;;;8.30;7.03;;;;;;;;;;4997792;28;20436;-57
2022/09/06 05:13:07;;;;;;;7.80;7.00;;;;;;;;;;4984201;28;20433;-61
2022/09/06 05:15:33;;;;;;;10.23;7.53;;;;;;;;;;4989883;28;20251;-56
2022/09/06 05:18:02;;;;;;;8.20;7.40;;;;;;;;;;4974754;28;20525;-53
2022/09/06 05:20:28;;;;;;;8.90;7.07;;;;;;;;;;5003525;28;20952;-54
2022/09/06 05:22:54;;;;;;;9.57;6.90;;;;;;;;;;4988675;28;20436;-55
2022/09/06 05:25:21;;;;;;;8.20;6.03;;;;;;;;;;4997627;28;20216;-56
2022/09/06 05:27:47;;;;;;;8.30;6.13;;;;;;;;;;4999454;28;20459;-56
2022/09/06 05:30:13;;;;;;;7.53;6.77;;;;;;;;;;5001120;28;20448;-55
2022/09/06 05:32:42;;;;;;;6.30;5.70;;;;;;;;;;4988773;28;20440;-54
2022/09/06 05:35:08;;;;;;;8.23;6.43;;;;;;;;;;5002836;28;20447;-55
2022/09/06 05:37:34;;;;;;;11.40;7.00;;;;;;;;;;4992261;28;22244;-53
2022/09/06 05:40:00;;;;;;;7.90;6.93;;;;;;;;;;4999577;28;20462;-53
2022/09/06 05:42:26;;;;;;;7.10;6.40;;;;;;;;;;4988226;28;20189;-53
2022/09/06 05:44:52;;;;;;;7.33;6.63;;;;;;;;;;4998872;28;20560;-54
2022/09/06 05:47:34;;;;;;;7.73;7.03;;;;;;;;;;4992435;28;20432;-57
2022/09/06 05:50:01;;;;;;;8.80;6.40;;;;;;;;;;5002242;28;21038;-55
2022/09/06 05:52:28;;;;;;;8.50;7.67;;;;;;;;;;5006542;28;20440;-55
2022/09/06 05:54:53;;;;;;;8.87;7.37;;;;;;;;;;4981179;28;20483;-55
2022/09/06 05:57:25;;;;;;;8.33;7.53;;;;;;;;;;4981867;28;21191;-61
2022/09/06 05:59:53;;;;;;;7.87;7.07;;;;;;;;;;4991804;28;20234;-54
2022/09/06 06:02:20;;;;;;;8.67;7.73;;;;;;;;;;4992460;28;20523;-56
2022/09/06 06:04:46;;;;;;;8.50;7.70;;;;;;;;;;5000080;28;20476;-59
2022/09/06 06:07:12;;;;;;;7.27;6.50;;;;;;;;;;4955545;28;20832;-55
2022/09/06 06:09:38;;;;;;;9.40;6.67;;;;;;;;;;5004004;28;20438;-56
2022/09/06 06:12:04;;;;;;;6.77;6.17;;;;;;;;;;5002736;28;20606;-55
2022/09/06 06:14:31;;;;;;;8.73;7.77;;;;;;;;;;5016512;28;20535;-55
2022/09/06 06:17:01;;;;;;;8.20;6.90;;;;;;;;;;4989229;28;20436;-55
2022/09/06 06:19:27;;;;;;;7.70;6.33;;;;;;;;;;5007350;28;20444;-55
2022/09/06 06:21:54;;;;;;;7.87;7.13;;;;;;;;;;5006240;28;20437;-54
2022/09/06 06:24:20;;;;;;;8.10;6.87;;;;;;;;;;5011247;28;20975;-55
2022/09/06 06:26:46;;;;;;;8.10;7.30;;;;;;;;;;4981628;28;20443;-54
2022/09/06 06:29:13;;;;;;;8.70;6.73;;;;;;;;;;4975924;28;20558;-55
2022/09/06 06:31:39;;;;;;;8.87;6.00;;;;;;;;;;5009210;28;20451;-55
2022/09/06 06:34:05;;;;;;;5.43;4.90;;;;;;;;;;5004330;28;20451;-55
2022/09/06 06:36:32;;;;;;;7.33;6.53;;;;;;;;;;5004242;28;20478;-55
2022/09/06 06:38:58;;;;;;;7.70;5.97;;;;;;;;;;4965153;28;21028;-55
2022/09/06 06:41:25;;;;;;;7.60;6.60;;;;;;;;;;5020576;28;20448;-55
2022/09/06 06:43:51;;;;;;;7.37;6.00;;;;;;;;;;4983275;28;20456;-55
2022/09/06 06:46:17;;;;;;;9.57;7.67;;;;;;;;;;5008788;28;20961;-56
2022/09/06 06:48:44;;;;;;;7.93;7.20;;;;;;;;;;5004342;28;20451;-56
2022/09/06 06:51:10;;;;;;;6.90;6.20;;;;;;;;;;5006859;28;20444;-55
2022/09/06 06:53:36;;;;;;;11.13;6.47;;;;;;;;;;5004639;28;20491;-55
2022/09/06 06:56:23;;;;;;;7.70;6.23;;;;;;;;;;5008063;28;20503;-55
2022/09/06 06:58:56;;;;;;;7.13;6.30;;;;;;;;;;4976827;28;20864;-55
2022/09/06 07:01:23;;;;;;;7.07;5.37;;;;;;;;;;5009060;28;20439;-55
2022/09/06 07:03:49;;;;;;;7.00;5.67;;;;;;;;;;4980887;28;20448;-55
2022/09/06 07:06:15;;;;;;;7.00;6.40;;;;;;;;;;5007184;28;20476;-55
2022/09/06 07:08:41;;;;;;;9.07;6.60;;;;;;;;;;5001507;28;20546;-55
2022/09/06 07:11:08;;;;;;;5.57;5.07;;;;;;;;;;5009176;28;20428;-55
2022/09/06 07:13:34;;;;;;;5.50;5.00;;;;;;;;;;4989345;28;20459;-56
2022/09/06 07:16:19;;;;;;;7.07;5.10;;;;;;;;;;5010016;28;20439;-56
2022/09/06 07:18:45;;;;;;;6.20;5.60;;;;;;;;;;4997290;28;20444;-56
2022/09/06 07:21:11;;;;;;;5.20;4.60;;;;;;;;;;5008077;28;20493;-55
2022/09/06 07:23:38;;;;;;;5.70;4.57;;;;;;;;;;4989425;28;20439;-54
2022/09/06 07:26:04;;;;;;;5.50;4.97;;;;;;;;;;5004735;28;20478;-55
2022/09/06 07:28:30;;;;;;;5.70;4.90;;;;;;;;;;4986770;28;20444;-59
2022/09/06 07:30:56;;;;;;;5.33;4.83;;;;;;;;;;4994874;28;20858;-55
2022/09/06 07:34:00;;;;;;;5.07;4.50;;;;;;;;;;4994454;28;21235;-56
2022/09/06 07:36:27;;;;;;;6.00;4.73;;;;;;;;;;5003704;28;20440;-55
2022/09/06 07:38:53;;;;;;;5.17;4.67;;;;;;;;;;4984458;28;20509;-56
2022/09/06 07:41:19;;;;;;;5.57;4.40;;;;;;;;;;5005112;28;20439;-55
2022/09/06 07:43:46;;;;;;;4.73;4.33;;;;;;;;;;4964409;28;20562;-56
2022/09/06 07:46:13;;;;;;;6.10;4.10;;;;;;;;;;5007508;28;20270;-56
2022/09/06 07:48:40;;;;;;;7.50;4.70;;;;;;;;;;4985403;28;20427;-56
2022/09/06 07:51:12;;;;;;;4.47;4.07;;;;;;;;;;5001549;28;20449;-55
2022/09/06 07:53:38;;;;;;;5.30;4.80;;;;;;;;;;5000183;28;20552;-56
2022/09/06 07:56:05;;;;;;;8.43;4.77;;;;;;;;;;5007520;28;20435;-56
2022/09/06 07:58:31;;;;;;;5.03;4.20;;;;;;;;;;4998851;28;20463;-56
2022/09/06 08:01:13;;;;;;;5.03;4.33;;;;;;;;;;5010299;28;20441;-56
2022/09/06 08:03:39;;;;;;;7.53;4.83;;;;;;;;;;4985461;28;20448;-54
2022/09/06 08:06:05;;;;;;;8.20;4.90;;;;;;;;;;5004626;28;20503;-54
2022/09/06 08:08:50;;;;;;;5.30;4.80;;;;;;;;;;4991432;28;20442;-54
2022/09/06 08:11:17;;;;;;;6.70;4.87;;;;;;;;;;5006793;28;20448;-54
2022/09/06 08:13:44;;;;;;;11.00;4.80;;;;;;;;;;5016617;28;20439;-55
2022/09/06 08:16:11;;;;;;;7.33;4.10;;;;;;;;;;5004284;28;20436;-56
2022/09/06 08:18:37;;;;;;;6.60;5.30;;;;;;;;;;4973132;28;20483;-55
2022/09/06 08:21:06;;;;;;;6.17;4.80;;;;;;;;;;5009353;28;20446;-55
2022/09/06 08:23:33;;;;;;;5.63;5.13;;;;;;;;;;5006611;28;20428;-55
2022/09/06 08:25:58;;;;;;;5.23;3.93;;;;;;;;;;5013913;28;20626;-55
2022/09/06 08:28:24;;;;;;;4.80;4.30;;;;;;;;;;4978519;28;21694;-55
2022/09/06 08:30:51;;;;;;;4.60;4.20;;;;;;;;;;5004082;28;20436;-56
2022/09/06 08:33:20;;;;;;;8.40;4.60;;;;;;;;;;5003235;28;20484;-55
2022/09/06 08:35:54;;;;;;;7.33;4.97;;;;;;;;;;5008263;28;20432;-55
2022/09/06 08:38:20;;;;;;;3.90;3.50;;;;;;;;;;4977862;28;20451;-55
2022/09/06 08:40:46;;;;;;;7.93;4.53;;;;;;;;;;5006976;28;20463;-56
2022/09/06 08:43:16;;;;;;;7.80;4.80;;;;;;;;;;4998786;28;20185;-55
2022/09/06 08:45:42;;;;;;;5.17;3.93;;;;;;;;;;5005910;28;20212;-56
2022/09/06 08:48:08;;;;;;;4.80;4.30;;;;;;;;;;4990874;28;20808;-55
2022/09/06 08:50:34;;;;;;;7.47;4.90;;;;;;;;;;5003342;28;20189;-55
2022/09/06 08:53:02;;;;;;;4.40;4.00;;;;;;;;;;4964455;28;20787;-55
2022/09/06 08:55:38;;;;;;;4.63;4.13;;;;;;;;;;5004934;28;20448;-55
2022/09/06 08:58:13;;;;;;;4.60;4.20;;;;;;;;;;5010022;28;20443;-56
2022/09/06 09:00:40;;;;;;;6.00;4.13;;;;;;;;;;5005402;28;20490;-56
2022/09/06 09:03:11;;;;;;;4.60;4.20;;;;;;;;;;4995930;28;20527;-56
2022/09/06 09:05:37;;;;;;;6.07;4.30;;;;;;;;;;5011088;28;20475;-55
2022/09/06 09:08:15;;;;;;;10.40;5.73;;;;;;;;;;4976064;28;20456;-57
2022/09/06 09:10:42;;;;;;;9.07;4.70;;;;;;;;;;5002889;28;20462;-56
2022/09/06 09:13:08;;;;;;;5.20;4.30;;;;;;;;;;5003508;28;20435;-54
2022/09/06 09:15:36;;;;;;;5.80;5.03;;;;;;;;;;5022822;28;20428;-55
2022/09/06 09:18:02;;;;;;;5.20;4.50;;;;;;;;;;4999705;28;20453;-56
2022/09/06 09:20:28;;;;;;;5.50;4.30;;;;;;;;;;5005814;28;21111;-54
2022/09/06 09:22:54;;;;;;;5.57;4.10;;;;;;;;;;4969791;28;20439;-56
2022/09/06 09:25:21;;;;;;;5.87;4.80;;;;;;;;;;5020916;28;20222;-54
2022/09/06 09:27:49;;;;;;;5.03;4.30;;;;;;;;;;4984220;28;20786;-55
2022/09/06 09:30:26;;;;;;;4.77;4.00;;;;;;;;;;5002523;28;20440;-55
2022/09/06 09:32:52;;;;;;;8.33;4.30;;;;;;;;;;5010699;28;20460;-56
2022/09/06 09:35:32;;;;;;;14.80;4.50;;;;;;;;;;5001128;28;20479;-56
2022/09/06 09:38:07;;;;;;;7.73;4.30;;;;;;;;;;4993944;28;20862;-55
2022/09/06 09:40:49;;;;;;;5.43;4.40;;;;;;;;;;4994024;28;20453;-55
2022/09/06 09:43:31;;;;;;;5.00;3.77;;;;;;;;;;5003880;28;21153;-55
2022/09/06 09:46:17;;;;;;;5.23;4.30;;;;;;;;;;4979201;28;20657;-55
2022/09/06 09:48:45;;;;;;;8.53;3.63;;;;;;;;;;4971262;28;20431;-56
2022/09/06 09:51:18;;;;;;;5.03;3.80;;;;;;;;;;5007764;28;20441;-55
2022/09/06 09:54:00;;;;;;;8.43;4.10;;;;;;;;;;4973865;28;20446;-55
2022/09/06 09:56:27;;;;;;;5.17;3.37;;;;;;;;;;5002819;28;20603;-54
2022/09/06 09:58:53;;;;;;;5.53;3.63;;;;;;;;;;4982346;28;20443;-54
2022/09/06 10:01:25;;;;;;;10.03;4.20;;;;;;;;;;5006318;28;20937;-55
2022/09/06 10:03:51;;;;;;;4.00;3.60;;;;;;;;;;4978235;28;21051;-56
2022/09/06 10:06:17;;;;;;;8.13;3.70;;;;;;;;;;5002299;28;20570;-56
2022/09/06 10:08:43;;;;;;;5.47;3.53;;;;;;;;;;5003519;28;21129;-55
2022/09/06 10:11:12;;;;;;;6.83;3.60;;;;;;;;;;5012327;28;21015;-55
2022/09/06 10:13:51;;;;;;;6.87;3.77;;;;;;;;;;4994658;28;20775;-55
2022/09/06 10:16:16;;;;;;;7.77;3.63;;;;;;;;;;4996472;28;20440;-56
2022/09/06 10:18:43;;;;;;;4.67;3.03;;;;;;;;;;4991127;28;20524;-55
2022/09/06 10:21:10;;;;;;;5.27;3.80;;;;;;;;;;4994387;28;20562;-55
2022/09/06 10:23:39;;;;;;;6.10;4.00;;;;;;;;;;4985782;28;20893;-56
2022/09/06 10:26:08;;;;;;;3.90;3.07;;;;;;;;;;4987023;28;20482;-55
2022/09/06 10:28:35;;;;;;;4.57;3.10;;;;;;;;;;5008550;28;20436;-54
2022/09/06 10:31:07;;;;;;;4.90;3.93;;;;;;;;;;4999393;28;20463;-57
2022/09/06 10:33:36;;;;;;;5.07;3.50;;;;;;;;;;5001075;28;20432;-56
2022/09/06 10:36:03;;;;;;;7.10;3.87;;;;;;;;;;4989769;28;20447;-56
2022/09/06 10:41:54;;;;;;;6.23;3.17;;;;;;;;;;5007359;28;20479;-55
2022/09/06 10:44:22;;;;;;;6.60;4.80;;;;;;;;;;4978000;28;21933;-56
2022/09/06 10:46:49;;;;;;;3.83;3.33;;;;;;;;;;5017716;28;20517;-55
2022/09/06 10:49:16;;;;;;;5.47;3.93;;;;;;;;;;4993869;28;22869;-54
2022/09/06 10:51:48;;;;;;;7.23;4.20;;;;;;;;;;5004009;28;20786;-55
2022/09/06 10:54:14;;;;;;;6.47;3.90;;;;;;;;;;4949528;28;20471;-55
2022/09/06 10:56:46;;;;;;;5.50;3.83;;;;;;;;;;5003817;28;20439;-54
2022/09/06 10:59:20;;;;;;;5.10;4.20;;;;;;;;;;4980386;28;20961;-56
2022/09/06 11:01:46;;;;;;;7.40;4.30;;;;;;;;;;5006252;28;20439;-56
2022/09/06 11:04:18;;;;;;;6.83;4.17;;;;;;;;;;4985669;28;20940;-56
2022/09/06 11:06:45;;;;;;;8.47;4.70;;;;;;;;;;5003767;28;20220;-56
2022/09/06 11:09:50;;;;;;;4.30;3.90;;;;;;;;;;4999215;28;20492;-55
2022/09/06 11:12:18;;;;;;;13.67;4.33;;;;;;;;;;4986612;28;20518;-57
2022/09/06 11:14:44;;;;;;;6.10;4.23;;;;;;;;;;4962779;28;20495;-56
2022/09/06 11:17:30;;;;;;;7.23;3.70;;;;;;;;;;4995347;28;20447;-54
2022/09/06 11:20:07;;;;;;;5.70;3.47;;;;;;;;;;4979183;28;20830;-55
2022/09/06 11:22:43;;;;;;;4.97;3.77;;;;;;;;;;5005021;28;20448;-56
2022/09/06 11:25:26;;;;;;;6.40;4.77;;;;;;;;;;4965292;28;20481;-55
2022/09/06 11:27:56;;;;;;;8.70;4.57;;;;;;;;;;5003745;28;20858;-55
2022/09/06 11:30:24;;;;;;;4.47;4.00;;;;;;;;;;5003905;28;21092;-55
2022/09/06 11:32:50;;;;;;;5.47;4.13;;;;;;;;;;5006981;28;20443;-55
2022/09/06 11:35:22;;;;;;;8.77;4.80;;;;;;;;;;4999077;28;20424;-55
2022/09/06 11:37:49;;;;;;;7.90;5.20;;;;;;;;;;5006037;28;21071;-55
2022/09/06 11:40:21;;;;;;;6.90;4.53;;;;;;;;;;4959311;28;20444;-55
2022/09/06 11:42:47;;;;;;;9.73;5.57;;;;;;;;;;5020073;28;20455;-56
2022/09/06 11:45:20;;;;;;;6.53;4.10;;;;;;;;;;4982841;28;20476;-55
2022/09/06 11:47:47;;;;;;;5.40;4.50;;;;;;;;;;5001246;28;20512;-56
2022/09/06 11:50:25;;;;;;;5.30;4.27;;;;;;;;;;4995491;28;21004;-55
2022/09/06 11:52:58;;;;;;;7.10;4.30;;;;;;;;;;5002960;28;20463;-55
2022/09/06 11:55:44;;;;;;;8.50;3.90;;;;;;;;;;4982455;28;20984;-55
2022/09/06 11:58:26;;;;;;;10.43;4.57;;;;;;;;;;5007911;28;20435;-55
2022/09/06 12:01:10;;;;;;;7.07;4.33;;;;;;;;;;4975063;28;20449;-55
2022/09/06 12:03:42;;;;;;;8.40;4.70;;;;;;;;;;5003804;28;20428;-55
2022/09/06 12:06:32;;;;;;;8.40;4.23;;;;;;;;;;5005664;28;20972;-55
2022/09/06 12:08:58;;;;;;;6.70;4.40;;;;;;;;;;5006360;28;20447;-56
2022/09/06 12:11:34;;;;;;;6.83;4.40;;;;;;;;;;5003091;28;20439;-55
2022/09/06 12:14:02;;;;;;;6.17;4.70;;;;;;;;;;4981993;28;20519;-55
2022/09/06 12:16:47;;;;;;;5.00;4.17;;;;;;;;;;5007570;28;20798;-55
2022/09/06 12:19:32;;;;;;;6.80;3.80;;;;;;;;;;4975756;28;20761;-55
2022/09/06 12:21:58;;;;;;;7.03;4.17;;;;;;;;;;5005309;28;20422;-54
2022/09/06 12:24:34;;;;;;;7.33;4.67;;;;;;;;;;4977731;28;20443;-54
2022/09/06 12:27:16;;;;;;;5.30;4.37;;;;;;;;;;4998275;28;20538;-54
2022/09/06 12:29:50;;;;;;;4.83;4.17;;;;;;;;;;5000139;28;20436;-55
2022/09/06 12:32:19;;;;;;;4.53;4.13;;;;;;;;;;4998883;28;20444;-55
2022/09/06 12:34:45;;;;;;;5.27;4.50;;;;;;;;;;4958633;28;20857;-55
2022/09/06 12:37:11;;;;;;;8.73;4.53;;;;;;;;;;5000036;28;20466;-55
2022/09/06 12:39:37;;;;;;;5.50;5.00;;;;;;;;;;4977995;28;20424;-57
2022/09/06 12:42:04;;;;;;;6.80;4.67;;;;;;;;;;4999436;28;20704;-57
2022/09/06 12:44:37;;;;;;;7.60;5.70;;;;;;;;;;4981337;28;20283;-55
2022/09/06 12:47:09;;;;;;;8.20;5.20;;;;;;;;;;5003292;28;20480;-55
2022/09/06 12:49:35;;;;;;;5.97;5.03;;;;;;;;;;5004022;28;20514;-55
2022/09/06 12:52:05;;;;;;;10.07;7.90;;;;;;;;;;4997663;28;20522;-55
2022/09/06 12:54:31;;;;;;;9.83;5.87;;;;;;;;;;4973007;28;20543;-55
2022/09/06 12:57:10;;;;;;;11.60;8.70;;;;;;;;;;5001596;28;20527;-55
2022/09/06 12:59:36;;;;;;;8.70;6.93;;;;;;;;;;4993056;28;20180;-56
2022/09/06 13:02:12;;;;;;;10.00;6.73;;;;;;;;;;5004759;28;20442;-55
2022/09/06 13:04:41;;;;;;;7.33;6.20;;;;;;;;;;4973517;28;20448;-58
2022/09/06 13:07:09;;;;;;;8.80;6.07;;;;;;;;;;4977290;28;20463;-57
2022/09/06 13:09:35;;;;;;;11.40;6.83;;;;;;;;;;4972317;28;20527;-55
2022/09/06 13:12:05;;;;;;;8.40;7.50;;;;;;;;;;5000729;28;20472;-56
2022/09/06 13:14:31;;;;;;;9.63;7.10;;;;;;;;;;4990488;28;20896;-56
2022/09/06 13:16:57;;;;;;;10.10;6.50;;;;;;;;;;5000256;28;20539;-57
2022/09/06 13:19:29;;;;;;;15.07;6.93;;;;;;;;;;4991931;28;20209;-56
2022/09/06 13:21:57;;;;;;;7.73;6.93;;;;;;;;;;5003339;28;20505;-55
2022/09/06 13:24:23;;;;;;;10.10;7.80;;;;;;;;;;4976654;28;20471;-56
2022/09/06 13:26:49;;;;;;;7.33;6.63;;;;;;;;;;5001494;28;20485;-55
2022/09/06 13:29:18;;;;;;;9.20;6.50;;;;;;;;;;4976349;28;20440;-56
2022/09/06 13:31:47;;;;;;;7.90;6.40;;;;;;;;;;5001689;28;20495;-60
2022/09/06 13:34:23;;;;;;;8.07;6.00;;;;;;;;;;4975708;28;20464;-57
2022/09/06 13:36:49;;;;;;;11.70;5.03;;;;;;;;;;5012084;28;20848;-57
2022/09/06 13:39:30;;;;;;;9.87;6.63;;;;;;;;;;4954760;28;20448;-56
2022/09/06 13:41:56;;;;;;;6.73;6.13;;;;;;;;;;5000363;28;21046;-56
2022/09/06 13:44:28;;;;;;;6.90;6.17;;;;;;;;;;4959339;28;20466;-57
2022/09/06 13:46:54;;;;;;;7.90;6.33;;;;;;;;;;5008983;28;21331;-57
2022/09/06 13:49:22;;;;;;;8.30;6.30;;;;;;;;;;4988873;28;20440;-58
2022/09/06 13:51:48;;;;;;;9.30;6.80;;;;;;;;;;5001465;28;20839;-57
2022/09/06 13:54:14;;;;;;;7.33;6.63;;;;;;;;;;4972710;28;20890;-56
2022/09/06 13:56:41;;;;;;;7.93;5.70;;;;;;;;;;5000171;28;20440;-56
2022/09/06 13:59:09;;;;;;;6.40;5.40;;;;;;;;;;4968870;28;20448;-56
2022/09/06 14:01:35;;;;;;;5.60;5.10;;;;;;;;;;5002147;28;20956;-55
2022/09/06 14:04:01;;;;;;;7.50;6.10;;;;;;;;;;4994066;28;20436;-56
2022/09/06 14:06:27;;;;;;;6.90;5.77;;;;;;;;;;5009790;28;20231;-56
2022/09/06 14:08:53;;;;;;;6.10;5.20;;;;;;;;;;4945705;28;20436;-58
2022/09/06 14:11:19;;;;;;;10.00;5.70;;;;;;;;;;4991050;28;20448;-56
2022/09/06 14:13:45;;;;;;;7.10;5.90;;;;;;;;;;4994922;28;21005;-56
2022/09/06 14:16:11;;;;;;;6.60;5.30;;;;;;;;;;4998602;28;20447;-55
2022/09/06 14:18:37;;;;;;;7.70;5.77;;;;;;;;;;4993605;28;20933;-55
2022/09/06 14:21:04;;;;;;;6.73;6.13;;;;;;;;;;5012014;28;20786;-56
2022/09/06 14:23:30;;;;;;;8.10;6.73;;;;;;;;;;4991240;28;20728;-54
2022/09/06 14:25:57;;;;;;;10.00;6.40;;;;;;;;;;4983691;28;20557;-55
2022/09/06 14:28:23;;;;;;;9.53;7.60;;;;;;;;;;4992707;28;20523;-55
2022/09/06 14:30:50;;;;;;;6.87;6.10;;;;;;;;;;4983839;28;20456;-56
2022/09/06 14:33:22;;;;;;;5.83;5.33;;;;;;;;;;5010644;28;20956;-56
2022/09/06 14:35:48;;;;;;;7.40;5.10;;;;;;;;;;5007497;28;20448;-56
2022/09/06 14:38:14;;;;;;;6.00;5.37;;;;;;;;;;5006998;28;20505;-56
2022/09/06 14:40:47;;;;;;;8.40;6.13;;;;;;;;;;4982964;28;20535;-57
2022/09/06 14:43:14;;;;;;;8.00;6.43;;;;;;;;;;5008358;28;20984;-59
2022/09/06 14:45:40;;;;;;;8.50;6.17;;;;;;;;;;4964232;28;20511;-55
2022/09/06 14:48:06;;;;;;;6.63;5.93;;;;;;;;;;5012859;28;20479;-56
2022/09/06 14:50:33;;;;;;;8.33;6.00;;;;;;;;;;4988340;28;21372;-56
2022/09/06 14:52:59;;;;;;;7.30;5.57;;;;;;;;;;5019490;28;20450;-61
2022/09/06 14:55:26;;;;;;;7.10;6.50;;;;;;;;;;5006989;28;20443;-55